createdAt,value
2022-10-11T00:01:15.072Z,14.60
2022-10-11T00:04:00.624Z,14.00
2022-10-11T00:06:47.319Z,14.10
2022-10-11T00:09:32.600Z,14.50
2022-10-11T00:12:17.935Z,14.20
2022-10-11T00:15:05.872Z,14.20
2022-10-11T00:17:51.381Z,14.30
2022-10-11T00:20:37.022Z,14.30
2022-10-11T00:23:22.474Z,15.10
2022-10-11T00:26:11.638Z,14.40
2022-10-11T00:28:57.186Z,14.40
2022-10-11T00:31:42.659Z,14.40
2022-10-11T00:34:28.248Z,14.40
2022-10-11T00:37:13.955Z,14.40
2022-10-11T00:39:59.504Z,15.30
2022-10-11T00:42:44.905Z,14.60
2022-10-11T00:45:30.033Z,14.50
2022-10-11T00:48:27.529Z,14.90
2022-10-11T00:51:36.118Z,15.00
2022-10-11T00:54:25.409Z,14.50
2022-10-11T00:57:14.033Z,14.50
2022-10-11T01:00:00.402Z,14.40
2022-10-11T01:02:46.367Z,14.40
2022-10-11T01:05:32.289Z,15.40
2022-10-11T01:08:18.231Z,15.10
2022-10-11T01:11:04.335Z,14.50
2022-10-11T01:14:11.088Z,14.50
2022-10-11T01:17:07.253Z,14.50
2022-10-11T01:20:04.481Z,14.50
2022-10-11T01:23:18.276Z,14.50
2022-10-11T01:26:21.745Z,14.50
2022-10-11T01:29:25.599Z,14.60
2022-10-11T01:32:22.328Z,14.40
2022-10-11T01:35:26.907Z,14.50
2022-10-11T01:38:18.314Z,14.50
2022-10-11T01:41:15.524Z,14.40
2022-10-11T01:44:02.482Z,14.40
2022-10-11T01:46:48.180Z,14.40
2022-10-11T01:49:33.694Z,14.30
2022-10-11T01:52:19.313Z,14.30
2022-10-11T01:55:21.707Z,14.40
2022-10-11T01:58:19.314Z,14.40
2022-10-11T02:01:26.790Z,14.30
2022-10-11T02:04:29.372Z,14.30
2022-10-11T02:07:45.478Z,14.30
2022-10-11T02:10:36.358Z,14.10
2022-10-11T02:13:46.124Z,14.20
2022-10-11T02:16:43.606Z,15.40
2022-10-11T02:19:33.416Z,14.00
2022-10-11T02:22:28.427Z,13.80
2022-10-11T02:25:20.126Z,13.80
2022-10-11T02:28:11.574Z,13.50
2022-10-11T02:30:59.556Z,13.40
2022-10-11T02:34:02.611Z,13.40
2022-10-11T02:36:48.094Z,13.90
2022-10-11T02:39:55.241Z,14.10
2022-10-11T02:42:46.965Z,13.30
2022-10-11T02:45:42.210Z,13.20
2022-10-11T02:48:29.397Z,13.10
2022-10-11T02:51:14.876Z,13.20
2022-10-11T02:54:00.394Z,13.10
2022-10-11T02:56:45.841Z,13.20
2022-10-11T02:59:31.082Z,13.80
2022-10-11T03:02:16.632Z,13.10
2022-10-11T03:05:02.223Z,13.40
2022-10-11T03:07:47.491Z,13.30
2022-10-11T03:10:33.970Z,13.60
2022-10-11T03:13:19.436Z,13.20
2022-10-11T03:16:05.135Z,13.70
2022-10-11T03:18:50.724Z,13.80
2022-10-11T03:21:36.655Z,13.00
2022-10-11T03:24:21.972Z,13.40
2022-10-11T03:27:07.467Z,12.80
2022-10-11T03:29:52.847Z,12.70
2022-10-11T03:32:38.635Z,12.60
2022-10-11T03:35:24.002Z,12.70
2022-10-11T03:38:13.092Z,12.70
2022-10-11T03:40:58.673Z,12.80
2022-10-11T03:43:44.534Z,12.70
2022-10-11T03:46:30.060Z,12.70
2022-10-11T03:49:15.617Z,12.60
2022-10-11T03:52:01.520Z,13.20
2022-10-11T03:54:46.825Z,12.60
2022-10-11T03:57:32.594Z,14.20
2022-10-11T04:00:18.397Z,13.00
2022-10-11T04:03:04.006Z,12.40
2022-10-11T04:05:49.585Z,12.40
2022-10-11T04:08:35.212Z,13.10
2022-10-11T04:11:20.564Z,12.30
2022-10-11T04:14:06.169Z,13.00
2022-10-11T04:16:51.625Z,12.40
2022-10-11T04:19:37.500Z,12.90
2022-10-11T04:22:22.712Z,14.00
2022-10-11T04:25:09.226Z,12.30
2022-10-11T04:27:54.920Z,12.40
2022-10-11T04:30:40.443Z,13.10
2022-10-11T04:33:26.129Z,12.30
2022-10-11T04:36:11.515Z,12.20
2022-10-11T04:38:56.949Z,13.60
2022-10-11T04:41:42.552Z,12.20
2022-10-11T04:44:28.320Z,12.90
2022-10-11T04:47:13.900Z,12.30
2022-10-11T04:49:59.064Z,12.20
2022-10-11T04:52:44.505Z,12.90
2022-10-11T04:55:29.933Z,12.20
2022-10-11T04:58:15.551Z,12.10
2022-10-11T05:01:01.372Z,11.80
2022-10-11T05:03:46.536Z,11.90
2022-10-11T05:06:32.159Z,11.90
2022-10-11T05:09:17.481Z,11.90
2022-10-11T05:12:03.194Z,12.00
2022-10-11T05:14:48.576Z,12.10
2022-10-11T05:17:34.180Z,12.20
2022-10-11T05:20:19.393Z,12.10
2022-10-11T05:23:04.852Z,12.20
2022-10-11T05:25:50.297Z,12.20
2022-10-11T05:28:36.128Z,12.20
2022-10-11T05:31:21.898Z,12.30
2022-10-11T05:34:07.594Z,12.00
2022-10-11T05:36:52.675Z,12.00
2022-10-11T05:39:38.208Z,12.00
2022-10-11T05:42:23.762Z,12.00
2022-10-11T05:45:09.656Z,12.10
2022-10-11T05:47:55.190Z,12.00
2022-10-11T05:50:40.504Z,12.00
2022-10-11T05:53:26.442Z,12.00
2022-10-11T05:56:24.234Z,12.10
2022-10-11T05:59:09.833Z,12.10
2022-10-11T06:01:55.520Z,12.10
2022-10-11T06:04:40.939Z,12.00
2022-10-11T06:07:26.557Z,12.10
2022-10-11T06:10:12.741Z,12.10
2022-10-11T06:12:58.866Z,12.00
2022-10-11T06:15:44.518Z,12.20
2022-10-11T06:18:31.033Z,12.30
2022-10-11T06:21:16.593Z,12.40
2022-10-11T06:24:02.642Z,12.40
2022-10-11T06:26:49.627Z,12.80
2022-10-11T06:29:35.819Z,12.40
2022-10-11T06:32:21.348Z,12.60
2022-10-11T06:35:07.545Z,12.60
2022-10-11T06:37:52.949Z,12.60
2022-10-11T06:40:38.705Z,13.30
2022-10-11T06:43:25.328Z,12.60
2022-10-11T06:46:11.114Z,12.80
2022-10-11T06:48:56.734Z,12.70
2022-10-11T06:51:41.919Z,13.10
2022-10-11T06:54:27.505Z,13.70
2022-10-11T06:57:13.151Z,13.20
2022-10-11T06:59:58.327Z,13.10
2022-10-11T07:02:43.829Z,14.10
2022-10-11T07:05:31.747Z,13.30
2022-10-11T07:08:17.296Z,13.30
2022-10-11T07:11:14.272Z,13.30
2022-10-11T07:14:04.429Z,13.40
2022-10-11T07:16:49.614Z,13.50
2022-10-11T07:19:35.419Z,13.70
2022-10-11T07:22:20.733Z,13.70
2022-10-11T07:25:06.854Z,13.80
2022-10-11T07:27:52.389Z,13.90
2022-10-11T07:30:42.175Z,14.00
2022-10-11T07:33:27.596Z,13.90
2022-10-11T07:36:13.619Z,14.00
2022-10-11T07:38:59.092Z,14.00
2022-10-11T07:41:46.087Z,14.00
2022-10-11T07:44:32.046Z,15.30
2022-10-11T07:47:17.363Z,13.90
2022-10-11T07:50:02.998Z,13.90
2022-10-11T07:52:48.249Z,13.80
2022-10-11T07:55:40.261Z,14.50
2022-10-11T07:58:25.864Z,14.00
2022-10-11T08:01:12.090Z,14.40
2022-10-11T08:03:57.813Z,14.50
2022-10-11T08:06:43.414Z,16.30
2022-10-11T08:09:29.112Z,14.90
2022-10-11T08:12:14.782Z,15.20
2022-10-11T08:15:00.925Z,15.80
2022-10-11T08:17:47.238Z,15.70
2022-10-11T08:20:33.181Z,17.30
2022-10-11T08:23:19.148Z,15.90
2022-10-11T08:26:04.711Z,16.00
2022-10-11T08:28:50.466Z,16.20
2022-10-11T08:31:35.954Z,16.70
2022-10-11T08:34:21.510Z,16.60
2022-10-11T08:37:07.193Z,16.90
2022-10-11T08:39:52.652Z,16.10
2022-10-11T08:43:06.682Z,16.30
2022-10-11T08:45:56.038Z,16.10
2022-10-11T08:48:46.941Z,15.90
2022-10-11T08:51:41.916Z,15.90
2022-10-11T08:54:35.103Z,15.90
2022-10-11T08:57:22.800Z,16.00
2022-10-11T09:00:14.514Z,16.00
2022-10-11T09:03:21.681Z,16.20
2022-10-11T09:06:40.858Z,16.20
2022-10-11T09:09:26.707Z,16.00
2022-10-11T09:13:10.823Z,16.00
2022-10-11T09:16:28.647Z,16.20
2022-10-11T09:19:20.164Z,16.70
2022-10-11T09:23:02.502Z,17.30
2022-10-11T09:26:23.140Z,17.10
2022-10-11T09:29:27.211Z,17.90
2022-10-11T09:32:20.902Z,18.10
2022-10-11T09:35:18.866Z,17.60
2022-10-11T09:38:28.952Z,17.40
2022-10-11T09:41:35.233Z,17.70
2022-10-11T09:44:25.110Z,17.90
2022-10-11T09:47:16.379Z,18.50
2022-10-11T09:50:18.774Z,19.10
2022-10-11T09:53:07.952Z,19.20
2022-10-11T09:56:04.135Z,19.50
2022-10-11T09:59:05.824Z,19.70
2022-10-11T10:02:16.662Z,20.20
2022-10-11T10:05:11.050Z,20.50
2022-10-11T10:08:20.284Z,20.40
2022-10-11T10:11:07.626Z,20.20
2022-10-11T10:13:56.070Z,20.30
2022-10-11T10:16:41.571Z,20.20
2022-10-11T10:19:26.994Z,21.00
2022-10-11T10:22:27.298Z,20.60
2022-10-11T10:25:29.899Z,21.00
2022-10-11T10:28:22.724Z,21.20
2022-10-11T10:31:22.443Z,22.40
2022-10-11T10:34:33.266Z,21.60
2022-10-11T10:37:29.241Z,21.20
2022-10-11T10:40:22.503Z,20.90
2022-10-11T10:43:15.638Z,20.50
2022-10-11T10:46:22.304Z,20.20
2022-10-11T10:49:52.564Z,20.50
2022-10-11T10:52:40.231Z,21.00
2022-10-11T10:55:45.067Z,21.60
2022-10-11T10:58:50.975Z,22.10
2022-10-11T11:01:50.170Z,22.10
2022-10-11T11:04:36.459Z,21.80
2022-10-11T11:07:45.937Z,21.50
2022-10-11T11:10:42.448Z,21.20
2022-10-11T11:13:30.692Z,21.70
2022-10-11T11:16:31.395Z,22.50
2022-10-11T11:19:38.543Z,22.70
2022-10-11T11:22:52.075Z,22.50
2022-10-11T11:25:44.652Z,22.40
2022-10-11T11:28:36.418Z,22.50
2022-10-11T11:31:53.858Z,22.70
2022-10-11T11:34:44.331Z,23.30
2022-10-11T11:37:37.268Z,24.10
2022-10-11T11:40:35.307Z,24.00
2022-10-11T11:43:32.702Z,23.70
2022-10-11T11:46:23.346Z,23.00
2022-10-11T11:49:18.111Z,22.70
2022-10-11T11:52:06.781Z,22.30
2022-10-11T11:55:03.779Z,22.00
2022-10-11T11:58:16.466Z,22.40
2022-10-11T12:01:15.832Z,22.60
2022-10-11T12:04:36.053Z,22.50
2022-10-11T12:07:24.055Z,22.40
2022-10-11T12:10:27.074Z,22.50
2022-10-11T12:13:34.834Z,22.90
2022-10-11T12:16:21.976Z,22.60
2022-10-11T12:19:14.335Z,22.70
2022-10-11T12:22:18.289Z,22.70
2022-10-11T12:25:11.218Z,22.60
2022-10-11T12:28:02.545Z,23.00
2022-10-11T12:30:48.018Z,22.60
2022-10-11T12:33:33.350Z,23.00
2022-10-11T12:36:28.740Z,23.60
2022-10-11T12:39:20.312Z,23.60
2022-10-11T12:42:24.692Z,24.00
2022-10-11T12:45:13.423Z,24.60
2022-10-11T12:48:17.505Z,24.70
2022-10-11T12:51:03.714Z,24.60
2022-10-11T12:54:25.407Z,24.50
2022-10-11T12:57:11.879Z,24.00
2022-10-11T13:00:17.771Z,24.10
2022-10-11T13:03:26.208Z,24.10
2022-10-11T13:06:26.981Z,24.10
2022-10-11T13:09:25.785Z,24.00
2022-10-11T13:12:18.010Z,24.10
2022-10-11T13:15:09.767Z,23.60
2022-10-11T13:18:00.503Z,23.60
2022-10-11T13:20:47.315Z,23.80
2022-10-11T13:23:38.600Z,24.10
2022-10-11T13:26:26.258Z,24.30
2022-10-11T13:29:16.992Z,24.50
2022-10-11T13:32:11.659Z,24.80
2022-10-11T13:35:02.808Z,24.50
2022-10-11T13:37:49.554Z,24.60
2022-10-11T13:40:37.469Z,24.40
2022-10-11T13:43:27.376Z,24.10
2022-10-11T13:46:22.318Z,24.10
2022-10-11T13:49:37.577Z,23.50
2022-10-11T13:52:24.660Z,23.30
2022-10-11T13:55:21.892Z,23.40
2022-10-11T13:58:18.903Z,23.30
2022-10-11T14:01:20.068Z,23.30
2022-10-11T14:04:08.881Z,23.30
2022-10-11T14:06:59.357Z,23.20
2022-10-11T14:09:47.115Z,23.10
2022-10-11T14:12:44.388Z,22.60
2022-10-11T14:15:38.055Z,22.40
2022-10-11T14:18:42.871Z,22.30
2022-10-11T14:21:34.718Z,22.00
2022-10-11T14:24:21.042Z,21.70
2022-10-11T14:27:10.260Z,21.60
2022-10-11T14:30:23.458Z,21.10
2022-10-11T14:33:02.656Z,21.10
2022-10-11T14:35:48.099Z,21.50
2022-10-11T14:38:33.484Z,21.60
2022-10-11T14:41:19.194Z,21.60
2022-10-11T14:44:04.558Z,21.70
2022-10-11T14:46:53.205Z,21.90
2022-10-11T14:49:40.079Z,22.30
2022-10-11T14:52:25.633Z,22.70
2022-10-11T14:55:11.124Z,22.90
2022-10-11T14:57:57.041Z,22.90
2022-10-11T15:00:42.683Z,22.90
2022-10-11T15:03:28.154Z,23.20
2022-10-11T15:06:24.319Z,22.90
2022-10-11T15:09:10.416Z,22.90
2022-10-11T15:11:56.301Z,22.80
2022-10-11T15:14:41.801Z,22.80
2022-10-11T15:17:27.284Z,23.10
2022-10-11T15:20:30.314Z,22.60
2022-10-11T15:23:15.625Z,22.30
2022-10-11T15:26:01.159Z,21.90
2022-10-11T15:28:46.870Z,21.80
2022-10-11T15:31:32.546Z,21.50
2022-10-11T15:34:17.796Z,21.60
2022-10-11T15:37:03.433Z,21.20
2022-10-11T15:39:49.351Z,21.40
2022-10-11T15:42:34.580Z,21.30
2022-10-11T15:45:24.040Z,21.20
2022-10-11T15:48:15.251Z,21.20
2022-10-11T15:51:00.533Z,20.60
2022-10-11T15:53:46.424Z,20.30
2022-10-11T15:56:33.914Z,20.30
2022-10-11T15:59:19.364Z,20.20
2022-10-11T16:02:04.849Z,20.20
2022-10-11T16:04:50.021Z,20.20
2022-10-11T16:07:35.661Z,20.10
2022-10-11T16:10:21.504Z,20.00
2022-10-11T16:13:08.204Z,19.50
2022-10-11T16:15:53.681Z,19.40
2022-10-11T16:18:39.102Z,19.50
2022-10-11T16:21:24.748Z,19.50
2022-10-11T16:24:09.854Z,19.50
2022-10-11T16:26:55.498Z,19.50
2022-10-11T16:29:41.154Z,19.30
2022-10-11T16:32:27.442Z,19.30
2022-10-11T16:35:15.003Z,19.20
2022-10-11T16:38:01.235Z,19.20
2022-10-11T16:40:46.888Z,19.20
2022-10-11T16:43:32.563Z,19.10
2022-10-11T16:46:18.999Z,18.90
2022-10-11T16:49:05.106Z,19.00
2022-10-11T16:51:51.522Z,18.70
2022-10-11T16:54:38.325Z,18.60
2022-10-11T16:57:23.880Z,18.40
2022-10-11T17:00:10.382Z,18.50
2022-10-11T17:02:55.992Z,18.20
2022-10-11T17:05:41.541Z,18.00
2022-10-11T17:08:27.072Z,18.60
2022-10-11T17:11:12.674Z,19.70
2022-10-11T17:14:00.608Z,18.00
2022-10-11T17:16:46.168Z,18.40
2022-10-11T17:19:31.935Z,17.90
2022-10-11T17:22:19.340Z,17.90
2022-10-11T17:25:05.588Z,18.30
2022-10-11T17:27:51.220Z,17.70
2022-10-11T17:30:38.217Z,17.60
2022-10-11T17:33:26.256Z,17.60
2022-10-11T17:36:34.067Z,17.40
2022-10-11T17:39:22.375Z,17.30
2022-10-11T17:42:08.642Z,17.20
2022-10-11T17:44:54.102Z,17.10
2022-10-11T17:47:39.453Z,17.00
2022-10-11T17:50:24.709Z,16.80
2022-10-11T17:53:10.301Z,17.40
2022-10-11T17:55:58.997Z,16.60
2022-10-11T17:58:45.399Z,16.40
2022-10-11T18:01:30.734Z,16.60
2022-10-11T18:04:19.697Z,16.40
2022-10-11T18:07:04.951Z,16.50
2022-10-11T18:09:50.574Z,16.40
2022-10-11T18:12:36.154Z,16.40
2022-10-11T18:15:22.307Z,16.30
2022-10-11T18:18:07.718Z,16.40
2022-10-11T18:20:53.295Z,16.30
2022-10-11T18:23:41.115Z,16.20
2022-10-11T18:26:30.476Z,16.10
2022-10-11T18:29:16.802Z,16.20
2022-10-11T18:32:02.342Z,16.20
2022-10-11T18:34:47.922Z,16.10
2022-10-11T18:37:33.556Z,16.20
2022-10-11T18:40:18.891Z,16.30
2022-10-11T18:43:04.920Z,16.50
2022-10-11T18:45:50.476Z,16.90
2022-10-11T18:48:36.792Z,16.30
2022-10-11T18:51:28.264Z,16.00
2022-10-11T18:54:16.945Z,16.10
2022-10-11T18:57:05.875Z,16.10
2022-10-11T18:59:51.395Z,16.80
2022-10-11T19:02:36.951Z,16.00
2022-10-11T19:05:22.320Z,15.90
2022-10-11T19:08:07.794Z,15.90
2022-10-11T19:10:53.151Z,16.00
2022-10-11T19:13:39.572Z,16.00
2022-10-11T19:16:26.706Z,16.10
2022-10-11T19:19:13.216Z,16.00
2022-10-11T19:21:59.929Z,15.90
2022-10-11T19:24:45.819Z,15.80
2022-10-11T19:27:31.085Z,15.80
2022-10-11T19:30:16.646Z,15.80
2022-10-11T19:33:04.678Z,15.70
2022-10-11T19:35:54.850Z,15.60
2022-10-11T19:38:44.322Z,15.60
2022-10-11T19:41:30.327Z,15.70
2022-10-11T19:44:16.379Z,15.50
2022-10-11T19:47:05.276Z,15.60
2022-10-11T19:49:50.664Z,15.50
2022-10-11T19:52:36.242Z,15.40
2022-10-11T19:55:21.661Z,15.50
2022-10-11T19:58:08.367Z,16.30
2022-10-11T20:01:12.154Z,15.50
2022-10-11T20:04:06.104Z,15.40
2022-10-11T20:06:51.266Z,15.40
2022-10-11T20:09:36.872Z,15.40
2022-10-11T20:12:22.239Z,15.30
2022-10-11T20:15:08.391Z,15.20
2022-10-11T20:17:53.707Z,15.30
2022-10-11T20:20:39.199Z,15.40
2022-10-11T20:23:27.625Z,15.90
2022-10-11T20:26:14.454Z,15.30
2022-10-11T20:28:59.693Z,15.20
2022-10-11T20:31:45.235Z,15.40
2022-10-11T20:34:31.118Z,15.40
2022-10-11T20:37:16.581Z,15.20
2022-10-11T20:40:03.559Z,15.20
2022-10-11T20:42:48.986Z,15.10
2022-10-11T20:45:34.437Z,15.00
2022-10-11T20:48:20.022Z,15.10
2022-10-11T20:51:07.170Z,14.90
2022-10-11T20:53:53.531Z,15.30
2022-10-11T20:56:39.645Z,14.80
2022-10-11T20:59:25.210Z,14.90
2022-10-11T21:02:12.606Z,14.60
2022-10-11T21:05:01.038Z,14.70
2022-10-11T21:07:46.545Z,14.70
2022-10-11T21:10:32.297Z,14.70
2022-10-11T21:13:17.586Z,14.70
2022-10-11T21:16:07.028Z,14.70
2022-10-11T21:18:53.972Z,14.70
2022-10-11T21:21:39.381Z,14.60
2022-10-11T21:24:24.770Z,14.40
2022-10-11T21:27:10.314Z,14.90
2022-10-11T21:29:55.531Z,15.70
2022-10-11T21:32:41.210Z,14.30
2022-10-11T21:35:27.903Z,14.40
2022-10-11T21:38:13.393Z,14.30
2022-10-11T21:40:58.669Z,14.40
2022-10-11T21:43:44.524Z,14.80
2022-10-11T21:49:37.173Z,14.30
2022-10-11T21:52:22.510Z,14.60
2022-10-11T21:55:08.152Z,15.00
2022-10-11T21:57:53.429Z,14.30
2022-10-11T22:00:39.247Z,14.30
2022-10-11T22:03:26.360Z,14.10
2022-10-11T22:06:12.846Z,14.10
2022-10-11T22:08:58.534Z,14.00
2022-10-11T22:11:44.107Z,14.00
2022-10-11T22:14:30.450Z,14.00
2022-10-11T22:17:15.700Z,14.10
2022-10-11T22:20:01.070Z,14.10
2022-10-11T22:22:46.415Z,14.40
2022-10-11T22:25:35.591Z,13.80
2022-10-11T22:28:21.321Z,15.00
2022-10-11T22:31:07.979Z,14.50
2022-10-11T22:33:55.489Z,13.90
2022-10-11T22:36:41.235Z,13.90
2022-10-11T22:39:26.484Z,14.50
2022-10-11T22:42:12.072Z,13.80
2022-10-11T22:44:57.651Z,13.80
2022-10-11T22:47:43.184Z,13.90
2022-10-11T22:50:28.899Z,14.00
2022-10-11T22:53:14.929Z,13.80
2022-10-11T22:56:00.407Z,13.70
2022-10-11T22:58:46.026Z,13.70
2022-10-11T23:01:31.959Z,14.40
2022-10-11T23:04:17.759Z,13.60
2022-10-11T23:07:05.117Z,13.70
2022-10-11T23:09:50.735Z,13.70
2022-10-11T23:12:36.535Z,14.30
2022-10-11T23:15:21.696Z,13.60
2022-10-11T23:18:07.148Z,13.50
2022-10-11T23:20:52.757Z,14.80
2022-10-11T23:23:39.769Z,13.70
2022-10-11T23:26:25.485Z,13.50
2022-10-11T23:29:10.731Z,13.70
2022-10-11T23:31:56.436Z,13.70
2022-10-11T23:34:41.992Z,14.40
2022-10-11T23:37:27.230Z,13.80
2022-10-11T23:40:12.928Z,14.20
2022-10-11T23:42:58.127Z,15.10
2022-10-11T23:45:44.369Z,13.80
2022-10-11T23:48:29.766Z,13.80
2022-10-11T23:51:15.030Z,13.90
2022-10-11T23:54:00.531Z,14.10
2022-10-11T23:56:45.898Z,13.80
2022-10-11T23:59:31.436Z,13.70
